createdAt,value
2023-03-05T00:01:00.983Z,10.01
2023-03-05T00:10:01.083Z,9.76
2023-03-05T00:12:43.151Z,9.78
2023-03-05T00:15:16.018Z,9.88
2023-03-05T00:17:53.575Z,9.94
2023-03-05T00:20:25.388Z,9.95
2023-03-05T00:23:02.305Z,9.99
2023-03-05T00:25:36.704Z,9.98
2023-03-05T00:28:10.643Z,9.96
2023-03-05T00:30:46.944Z,9.88
2023-03-05T00:33:17.682Z,9.84
2023-03-05T00:35:53.751Z,9.82
2023-03-05T00:38:29.869Z,9.78
2023-03-05T00:41:00.387Z,9.70
2023-03-05T00:43:28.666Z,9.66
2023-03-05T00:45:57.113Z,9.60
2023-03-05T00:48:25.730Z,9.53
2023-03-05T00:50:55.521Z,9.46
2023-03-05T00:53:26.259Z,9.45
2023-03-05T00:55:54.529Z,9.41
2023-03-05T00:58:26.006Z,9.47
2023-03-05T01:00:56.875Z,9.51
2023-03-05T01:03:25.172Z,9.56
2023-03-05T01:05:53.614Z,9.59
2023-03-05T01:08:23.128Z,9.61
2023-03-05T01:10:54.132Z,9.56
2023-03-05T01:13:22.697Z,9.54
2023-03-05T01:15:51.285Z,9.51
2023-03-05T01:18:21.193Z,9.54
2023-03-05T01:20:50.987Z,9.51
2023-03-05T01:23:23.589Z,9.57
2023-03-05T01:25:55.507Z,9.55
2023-03-05T01:28:23.823Z,9.51
2023-03-05T01:30:54.068Z,9.54
2023-03-05T01:33:22.307Z,9.54
2023-03-05T01:35:52.877Z,9.63
2023-03-05T01:38:21.193Z,9.70
2023-03-05T01:40:50.941Z,9.71
2023-03-05T01:43:28.330Z,9.67
2023-03-05T01:46:31.230Z,9.66
2023-03-05T01:49:05.468Z,9.74
2023-03-05T01:51:38.027Z,9.78
2023-03-05T01:54:08.687Z,9.80
2023-03-05T01:56:41.019Z,9.74
2023-03-05T01:59:13.127Z,9.68
2023-03-05T02:01:45.090Z,9.62
2023-03-05T02:04:17.071Z,9.56
2023-03-05T02:07:03.455Z,9.40
2023-03-05T02:09:31.837Z,9.34
2023-03-05T02:12:01.496Z,9.47
2023-03-05T02:14:30.021Z,9.52
2023-03-05T02:16:58.229Z,9.51
2023-03-05T02:19:26.686Z,9.49
2023-03-05T02:22:00.725Z,9.45
2023-03-05T02:24:36.768Z,9.40
2023-03-05T02:27:11.495Z,9.44
2023-03-05T02:29:48.853Z,9.39
2023-03-05T02:32:17.107Z,9.41
2023-03-05T02:34:45.457Z,9.34
2023-03-05T02:37:15.151Z,9.34
2023-03-05T02:39:43.538Z,9.36
2023-03-05T02:42:18.031Z,9.33
2023-03-05T02:44:46.853Z,9.39
2023-03-05T02:47:15.194Z,9.37
2023-03-05T02:49:44.086Z,9.32
2023-03-05T02:52:12.288Z,9.26
2023-03-05T02:54:44.756Z,9.17
2023-03-05T02:57:13.583Z,9.17
2023-03-05T02:59:42.093Z,9.23
2023-03-05T03:02:10.547Z,9.24
2023-03-05T03:04:43.798Z,9.18
2023-03-05T03:07:12.296Z,9.17
2023-03-05T03:09:46.030Z,9.30
2023-03-05T03:12:14.433Z,9.35
2023-03-05T03:14:46.435Z,9.40
2023-03-05T03:17:19.199Z,9.45
2023-03-05T03:19:48.101Z,9.51
2023-03-05T03:22:17.637Z,9.56
2023-03-05T03:24:47.336Z,9.59
2023-03-05T03:27:23.700Z,9.64
2023-03-05T03:29:53.114Z,9.66
2023-03-05T03:32:22.990Z,9.74
2023-03-05T03:35:08.876Z,9.75
2023-03-05T03:50:25.053Z,9.26
2023-03-05T03:52:53.503Z,9.19
2023-03-05T03:55:21.743Z,9.21
2023-03-05T03:57:50.039Z,9.22
2023-03-05T04:00:19.571Z,9.24
2023-03-05T04:02:47.936Z,9.19
2023-03-05T04:05:16.305Z,9.19
2023-03-05T04:07:46.311Z,9.16
2023-03-05T04:10:14.623Z,9.21
2023-03-05T04:12:43.675Z,9.18
2023-03-05T04:15:12.454Z,9.26
2023-03-05T04:17:40.706Z,9.27
2023-03-05T04:20:10.655Z,9.24
2023-03-05T04:22:39.239Z,9.27
2023-03-05T04:25:09.880Z,9.24
2023-03-05T04:27:40.393Z,9.17
2023-03-05T04:30:12.221Z,9.14
2023-03-05T04:32:40.547Z,9.11
2023-03-05T04:35:09.304Z,9.12
2023-03-05T04:37:37.653Z,9.12
2023-03-05T04:40:07.037Z,9.14
2023-03-05T04:42:36.742Z,9.10
2023-03-05T04:45:06.796Z,9.09
2023-03-05T04:47:35.390Z,9.10
2023-03-05T04:50:05.038Z,8.98
2023-03-05T04:52:33.565Z,9.01
2023-03-05T04:55:01.867Z,9.03
2023-03-05T04:57:30.159Z,8.95
2023-03-05T05:00:00.721Z,8.90
2023-03-05T05:02:29.066Z,8.86
2023-03-05T05:04:57.395Z,8.79
2023-03-05T05:07:25.709Z,8.75
2023-03-05T05:09:54.059Z,8.70
2023-03-05T05:12:22.308Z,8.76
2023-03-05T05:14:50.617Z,8.70
2023-03-05T05:17:20.280Z,8.67
2023-03-05T05:19:48.939Z,8.74
2023-03-05T05:22:17.334Z,8.78
2023-03-05T05:24:45.587Z,8.77
2023-03-05T05:27:13.963Z,8.80
2023-03-05T05:29:42.436Z,8.80
2023-03-05T05:32:10.897Z,8.80
2023-03-05T05:34:40.657Z,8.78
2023-03-05T05:37:08.991Z,8.77
2023-03-05T05:39:37.312Z,8.74
2023-03-05T05:42:05.808Z,8.62
2023-03-05T05:44:35.013Z,8.55
2023-03-05T05:47:03.342Z,8.46
2023-03-05T05:49:31.623Z,8.38
2023-03-05T05:52:01.294Z,8.33
2023-03-05T05:54:29.550Z,8.23
2023-03-05T05:56:57.818Z,8.21
2023-03-05T05:59:26.351Z,8.17
2023-03-05T06:01:54.902Z,8.12
2023-03-05T06:04:23.256Z,8.06
2023-03-05T06:06:51.591Z,8.06
2023-03-05T06:09:21.331Z,8.01
2023-03-05T06:11:50.488Z,7.96
2023-03-05T06:14:19.130Z,7.97
2023-03-05T06:16:47.445Z,7.93
2023-03-05T06:19:16.935Z,7.98
2023-03-05T06:21:45.576Z,7.94
2023-03-05T06:24:14.216Z,7.91
2023-03-05T06:26:43.903Z,7.98
2023-03-05T06:29:12.138Z,8.02
2023-03-05T06:31:40.580Z,8.14
2023-03-05T06:34:08.892Z,8.17
2023-03-05T06:36:37.182Z,8.20
2023-03-05T06:39:05.953Z,8.26
2023-03-05T06:41:34.488Z,8.26
2023-03-05T06:44:04.801Z,8.32
2023-03-05T06:46:34.784Z,8.28
2023-03-05T06:49:05.319Z,8.30
2023-03-05T06:51:35.246Z,8.32
2023-03-05T06:54:06.371Z,8.44
2023-03-05T06:56:37.188Z,8.58
2023-03-05T06:59:07.033Z,8.68
2023-03-05T07:01:35.631Z,8.78
2023-03-05T07:04:04.483Z,8.86
2023-03-05T07:06:35.294Z,8.87
2023-03-05T07:09:05.989Z,8.81
2023-03-05T07:11:34.508Z,8.90
2023-03-05T07:14:03.294Z,8.82
2023-03-05T07:16:34.652Z,8.86
2023-03-05T07:19:06.556Z,8.86
2023-03-05T07:21:39.136Z,8.92
2023-03-05T07:24:09.674Z,8.96
2023-03-05T07:26:38.137Z,8.93
2023-03-05T07:29:06.386Z,8.96
2023-03-05T07:31:36.130Z,9.03
2023-03-05T07:34:06.598Z,9.10
2023-03-05T07:36:35.460Z,9.20
2023-03-05T07:39:05.049Z,9.31
2023-03-05T07:41:33.675Z,9.52
2023-03-05T07:44:01.983Z,9.76
2023-03-05T07:46:33.089Z,9.86
2023-03-05T07:49:02.921Z,9.95
2023-03-05T07:51:31.882Z,10.03
2023-03-05T07:54:00.634Z,10.14
2023-03-05T07:56:32.028Z,10.28
2023-03-05T07:59:00.925Z,10.40
2023-03-05T08:01:29.443Z,10.45
2023-03-05T08:03:57.805Z,10.48
2023-03-05T08:06:27.551Z,10.56
2023-03-05T08:08:55.871Z,10.62
2023-03-05T08:11:24.132Z,10.65
2023-03-05T08:13:52.763Z,10.70
2023-03-05T08:16:22.362Z,10.85
2023-03-05T08:18:50.658Z,10.83
2023-03-05T08:21:21.231Z,10.92
2023-03-05T08:23:50.973Z,11.00
2023-03-05T08:26:21.107Z,11.12
2023-03-05T08:28:49.494Z,11.34
2023-03-05T08:31:19.520Z,11.47
2023-03-05T08:33:47.854Z,11.57
2023-03-05T08:36:16.131Z,11.59
2023-03-05T08:38:44.843Z,11.70
2023-03-05T08:41:14.910Z,11.78
2023-03-05T08:43:43.276Z,11.96
2023-03-05T08:46:12.669Z,12.19
2023-03-05T08:48:41.463Z,12.42
2023-03-05T08:51:11.067Z,12.78
2023-03-05T08:53:39.442Z,12.97
2023-03-05T08:56:08.813Z,13.06
2023-03-05T08:58:38.567Z,13.18
2023-03-05T09:01:07.247Z,13.36
2023-03-05T09:03:35.813Z,13.58
2023-03-05T09:06:06.138Z,13.60
2023-03-05T09:08:41.010Z,13.55
2023-03-05T09:11:10.902Z,13.47
2023-03-05T09:13:40.847Z,13.31
2023-03-05T09:16:13.392Z,13.41
2023-03-05T09:18:41.749Z,13.60
2023-03-05T09:21:11.985Z,13.62
2023-03-05T09:23:40.643Z,13.52
2023-03-05T09:26:10.208Z,13.58
2023-03-05T09:28:38.695Z,13.80
2023-03-05T09:31:10.141Z,14.20
2023-03-05T09:33:38.979Z,14.34
2023-03-05T09:36:20.863Z,14.33
2023-03-05T09:38:49.362Z,14.53
2023-03-05T09:41:26.096Z,14.36
2023-03-05T09:44:02.791Z,14.25
2023-03-05T09:46:43.903Z,14.07
2023-03-05T09:49:19.172Z,14.12
2023-03-05T09:51:49.524Z,14.56
2023-03-05T09:54:21.453Z,14.69
2023-03-05T09:56:52.482Z,14.80
2023-03-05T09:59:31.482Z,14.79
2023-03-05T10:02:04.596Z,14.95
2023-03-05T10:04:43.982Z,14.78
2023-03-05T10:07:18.050Z,14.45
2023-03-05T10:09:50.101Z,14.11
2023-03-05T10:12:27.959Z,13.76
2023-03-05T10:14:57.287Z,13.68
2023-03-05T10:18:07.161Z,13.97
2023-03-05T10:20:50.684Z,14.26
2023-03-05T10:23:27.104Z,14.27
2023-03-05T10:26:03.260Z,14.05
2023-03-05T10:28:36.959Z,13.88
2023-03-05T10:31:16.873Z,14.00
2023-03-05T10:33:57.562Z,14.54
2023-03-05T10:36:45.039Z,15.06
2023-03-05T10:39:51.506Z,15.31
2023-03-05T10:42:31.108Z,15.82
2023-03-05T10:45:00.660Z,16.41
2023-03-05T10:47:32.922Z,16.86
2023-03-05T10:50:02.703Z,17.09
2023-03-05T10:52:36.473Z,17.37
2023-03-05T10:55:16.134Z,17.99
2023-03-05T10:57:44.400Z,18.18
2023-03-05T11:00:20.934Z,18.17
2023-03-05T11:03:01.346Z,18.07
2023-03-05T11:05:46.526Z,18.08
2023-03-05T11:08:30.461Z,17.72
2023-03-05T11:11:17.858Z,17.08
2023-03-05T11:13:55.117Z,16.67
2023-03-05T11:16:25.921Z,16.54
2023-03-05T11:19:18.720Z,16.43
2023-03-05T11:22:06.135Z,16.48
2023-03-05T11:24:34.953Z,17.02
2023-03-05T11:27:03.626Z,17.38
2023-03-05T11:29:33.449Z,17.67
2023-03-05T11:32:18.042Z,17.46
2023-03-05T11:39:18.451Z,15.68
2023-03-05T11:41:52.704Z,15.32
2023-03-05T11:44:27.014Z,15.39
2023-03-05T11:46:58.329Z,15.78
2023-03-05T11:49:30.109Z,16.33
2023-03-05T11:52:07.057Z,16.76
2023-03-05T11:54:44.023Z,16.52
2023-03-05T11:57:15.664Z,16.28
2023-03-05T11:59:45.136Z,16.04
2023-03-05T12:02:20.147Z,15.91
2023-03-05T12:04:49.806Z,15.95
2023-03-05T12:07:28.388Z,16.02
2023-03-05T12:09:58.564Z,16.57
2023-03-05T12:12:38.391Z,17.41
2023-03-05T12:15:26.309Z,17.36
2023-03-05T12:18:04.668Z,17.29
2023-03-05T12:20:41.076Z,17.13
2023-03-05T12:23:14.602Z,16.78
2023-03-05T12:25:52.066Z,16.39
2023-03-05T12:28:59.252Z,15.80
2023-03-05T12:31:37.739Z,15.93
2023-03-05T12:34:38.150Z,16.43
2023-03-05T12:37:10.807Z,16.82
2023-03-05T12:39:58.322Z,16.94
2023-03-05T12:42:52.633Z,17.14
2023-03-05T12:45:33.138Z,16.37
2023-03-05T12:48:42.642Z,15.25
2023-03-05T12:51:16.437Z,14.64
2023-03-05T12:53:44.618Z,14.48
2023-03-05T12:56:20.048Z,14.63
2023-03-05T12:58:52.788Z,14.83
2023-03-05T13:01:39.254Z,14.68
2023-03-05T13:04:14.688Z,14.54
2023-03-05T13:06:42.767Z,14.64
2023-03-05T13:09:24.768Z,15.42
2023-03-05T13:11:55.078Z,15.97
2023-03-05T13:14:34.562Z,16.57
2023-03-05T13:17:03.658Z,17.13
2023-03-05T13:19:36.095Z,17.21
2023-03-05T13:22:12.110Z,17.19
2023-03-05T13:24:41.394Z,17.16
2023-03-05T13:27:21.368Z,17.45
2023-03-05T13:29:53.967Z,17.47
2023-03-05T13:32:27.567Z,17.22
2023-03-05T13:34:57.922Z,17.30
2023-03-05T13:37:28.026Z,16.92
2023-03-05T13:39:59.020Z,16.67
2023-03-05T13:42:34.562Z,16.18
2023-03-05T13:45:07.727Z,15.60
2023-03-05T13:47:52.517Z,15.29
2023-03-05T13:50:25.760Z,15.02
2023-03-05T13:52:54.031Z,15.16
2023-03-05T13:55:22.539Z,15.48
2023-03-05T13:57:53.119Z,15.90
2023-03-05T14:00:35.156Z,16.05
2023-03-05T14:03:11.429Z,15.95
2023-03-05T14:05:44.933Z,15.77
2023-03-05T14:08:20.483Z,15.53
2023-03-05T14:10:49.244Z,15.48
2023-03-05T14:13:20.876Z,15.58
2023-03-05T14:16:06.289Z,15.93
2023-03-05T14:18:34.829Z,16.47
2023-03-05T14:21:09.490Z,16.75
2023-03-05T14:23:41.016Z,16.58
2023-03-05T14:26:26.913Z,16.49
2023-03-05T14:28:58.967Z,16.46
2023-03-05T14:31:46.992Z,16.72
2023-03-05T14:34:23.217Z,16.98
2023-03-05T14:36:53.688Z,17.37
2023-03-05T14:39:30.778Z,17.54
2023-03-05T14:42:31.509Z,17.40
2023-03-05T14:45:01.369Z,17.19
2023-03-05T14:47:31.120Z,17.07
2023-03-05T14:49:59.173Z,17.01
2023-03-05T14:52:28.241Z,17.16
2023-03-05T14:54:56.397Z,17.33
2023-03-05T14:57:27.597Z,17.33
2023-03-05T14:59:56.626Z,17.18
2023-03-05T15:02:26.879Z,17.31
2023-03-05T15:04:56.369Z,17.14
2023-03-05T15:07:30.064Z,16.62
2023-03-05T15:09:58.424Z,15.90
2023-03-05T15:12:27.180Z,15.32
2023-03-05T15:14:56.619Z,14.80
2023-03-05T15:17:31.592Z,14.54
2023-03-05T15:20:01.833Z,14.54
2023-03-05T15:22:29.956Z,14.62
2023-03-05T15:24:58.020Z,14.78
2023-03-05T15:27:26.119Z,14.70
2023-03-05T15:29:54.197Z,14.52
2023-03-05T15:32:22.245Z,14.24
2023-03-05T15:34:50.272Z,14.03
2023-03-05T15:37:19.737Z,13.96
2023-03-05T15:39:49.386Z,13.93
2023-03-05T15:42:17.430Z,13.60
2023-03-05T15:44:45.493Z,13.49
2023-03-05T15:47:13.582Z,13.53
2023-03-05T15:49:41.586Z,13.38
2023-03-05T15:52:09.696Z,13.35
2023-03-05T15:54:39.241Z,13.29
2023-03-05T15:57:10.616Z,13.23
2023-03-05T15:59:38.729Z,13.20
2023-03-05T16:02:06.966Z,13.17
2023-03-05T16:04:35.014Z,13.14
2023-03-05T16:07:04.600Z,12.96
2023-03-05T16:09:36.321Z,12.91
2023-03-05T16:12:09.835Z,12.87
2023-03-05T16:14:39.680Z,12.80
2023-03-05T16:17:08.290Z,12.74
2023-03-05T16:19:40.482Z,12.59
2023-03-05T16:22:08.538Z,12.49
2023-03-05T16:24:36.709Z,12.40
2023-03-05T16:27:06.258Z,12.30
2023-03-05T16:29:34.743Z,12.28
2023-03-05T16:32:04.076Z,12.18
2023-03-05T16:34:34.485Z,11.99
2023-03-05T16:37:04.689Z,11.89
2023-03-05T16:39:32.838Z,11.77
2023-03-05T16:42:00.916Z,11.71
2023-03-05T16:44:30.371Z,11.72
2023-03-05T16:46:59.183Z,11.61
2023-03-05T16:49:27.338Z,11.40
2023-03-05T16:51:56.697Z,11.34
2023-03-05T16:54:25.945Z,11.28
2023-03-05T16:56:54.021Z,11.13
2023-03-05T16:59:22.074Z,11.08
2023-03-05T17:01:51.732Z,11.03
2023-03-05T17:04:20.014Z,10.92
2023-03-05T17:06:50.182Z,10.82
2023-03-05T17:09:35.579Z,10.82
2023-03-05T17:12:04.205Z,10.70
2023-03-05T17:14:33.036Z,10.68
2023-03-05T17:21:42.320Z,10.43
2023-03-05T17:24:11.495Z,10.49
2023-03-05T17:26:42.783Z,10.41
2023-03-05T17:29:11.089Z,10.37
2023-03-05T17:31:39.424Z,10.33
2023-03-05T17:34:07.593Z,10.33
2023-03-05T17:36:35.728Z,10.31
2023-03-05T17:39:06.048Z,10.34
2023-03-05T17:41:34.264Z,10.40
2023-03-05T17:44:02.557Z,10.43
2023-03-05T17:46:30.748Z,10.48
2023-03-05T17:48:58.962Z,10.51
2023-03-05T17:51:27.042Z,10.55
2023-03-05T17:53:55.175Z,10.55
2023-03-05T17:56:26.386Z,10.59
2023-03-05T17:58:54.863Z,10.59
2023-03-05T18:01:24.871Z,10.60
2023-03-05T18:03:53.045Z,10.56
2023-03-05T18:06:21.177Z,10.56
2023-03-05T18:08:49.337Z,10.57
2023-03-05T18:11:17.674Z,10.53
2023-03-05T18:13:47.100Z,10.55
2023-03-05T18:16:17.060Z,10.53
2023-03-05T18:18:46.088Z,10.54
2023-03-05T18:21:14.388Z,10.53
2023-03-05T18:23:42.425Z,10.48
2023-03-05T18:26:10.530Z,10.48
2023-03-05T18:28:38.612Z,10.44
2023-03-05T18:31:08.180Z,10.44
2023-03-05T18:33:38.697Z,10.41
2023-03-05T18:36:09.785Z,10.42
2023-03-05T18:38:38.450Z,10.37
2023-03-05T18:41:08.079Z,10.30
2023-03-05T18:43:36.728Z,10.26
2023-03-05T18:46:06.043Z,10.24
2023-03-05T18:48:35.641Z,10.25
2023-03-05T18:51:04.114Z,10.19
2023-03-05T18:53:32.252Z,10.22
2023-03-05T18:56:01.679Z,10.19
2023-03-05T18:58:29.950Z,10.24
2023-03-05T19:00:58.123Z,10.21
2023-03-05T19:03:26.313Z,10.23
2023-03-05T19:05:55.831Z,10.20
2023-03-05T19:08:26.980Z,10.24
2023-03-05T19:10:55.105Z,10.19
2023-03-05T19:13:39.815Z,10.13
2023-03-05T19:16:13.432Z,10.08
2023-03-05T19:19:08.916Z,10.03
2023-03-05T19:21:46.184Z,10.04
2023-03-05T19:24:14.999Z,10.09
2023-03-05T19:26:43.626Z,10.10
2023-03-05T19:29:12.293Z,10.14
2023-03-05T19:31:40.603Z,10.10
2023-03-05T19:34:09.571Z,10.12
2023-03-05T19:36:38.011Z,10.14
2023-03-05T19:39:08.430Z,10.10
2023-03-05T19:41:37.340Z,10.09
2023-03-05T19:44:06.151Z,10.04
2023-03-05T19:46:34.402Z,10.07
2023-03-05T19:49:02.502Z,10.03
2023-03-05T19:51:30.652Z,9.98
2023-03-05T19:54:00.618Z,10.00
2023-03-05T19:56:30.176Z,10.06
2023-03-05T19:58:58.273Z,10.10
2023-03-05T20:01:28.074Z,10.04
2023-03-05T20:03:58.732Z,10.06
2023-03-05T20:06:28.757Z,10.06
2023-03-05T20:08:57.510Z,10.09
2023-03-05T20:11:26.534Z,10.12
2023-03-05T20:13:57.986Z,10.14
2023-03-05T20:16:29.713Z,10.10
2023-03-05T20:18:59.320Z,10.07
2023-03-05T20:21:29.394Z,10.09
2023-03-05T20:23:59.226Z,10.08
2023-03-05T20:26:27.671Z,10.09
2023-03-05T20:28:57.970Z,10.07
2023-03-05T20:31:28.018Z,10.06
2023-03-05T20:33:57.914Z,10.05
2023-03-05T20:36:26.193Z,10.03
2023-03-05T20:38:55.045Z,10.08
2023-03-05T20:41:23.225Z,10.11
2023-03-05T20:43:52.398Z,10.05
2023-03-05T20:46:24.410Z,10.10
2023-03-05T20:48:54.706Z,10.12
2023-03-05T20:51:25.892Z,10.09
2023-03-05T20:53:58.219Z,10.13
2023-03-05T20:56:27.952Z,10.11
2023-03-05T20:58:58.269Z,10.14
2023-03-05T21:01:28.656Z,10.12
2023-03-05T21:03:58.303Z,10.14
2023-03-05T21:06:28.183Z,10.12
2023-03-05T21:08:57.337Z,10.04
2023-03-05T21:11:25.953Z,10.09
2023-03-05T21:13:54.291Z,10.09
2023-03-05T21:16:25.649Z,10.08
2023-03-05T21:18:57.393Z,10.13
2023-03-05T21:21:26.248Z,10.13
2023-03-05T21:23:55.485Z,10.16
2023-03-05T21:26:23.807Z,10.15
2023-03-05T21:28:52.073Z,10.15
2023-03-05T21:31:23.061Z,10.20
2023-03-05T21:33:51.605Z,10.22
2023-03-05T21:36:21.282Z,10.21
2023-03-05T21:38:50.647Z,10.26
2023-03-05T21:41:20.600Z,10.28
2023-03-05T21:43:48.890Z,10.30
2023-03-05T21:46:17.245Z,10.34
2023-03-05T21:48:45.563Z,10.35
2023-03-05T21:51:55.777Z,10.33
2023-03-05T21:54:33.165Z,10.30
2023-03-05T21:57:01.747Z,10.31
2023-03-05T21:59:30.020Z,10.35
2023-03-05T22:01:58.374Z,10.35
2023-03-05T22:04:26.792Z,10.41
2023-03-05T22:06:57.257Z,10.40
2023-03-05T22:09:25.744Z,10.40
2023-03-05T22:11:54.054Z,10.39
2023-03-05T22:14:22.356Z,10.42
2023-03-05T22:16:53.293Z,10.39
2023-03-05T22:19:21.710Z,10.25
2023-03-05T22:21:50.040Z,10.21
2023-03-05T22:24:19.767Z,10.00
2023-03-05T22:26:48.211Z,9.92
2023-03-05T22:29:17.524Z,9.76
2023-03-05T22:31:46.437Z,9.65
2023-03-05T22:34:14.697Z,9.57
2023-03-05T22:36:43.014Z,9.49
2023-03-05T22:39:11.272Z,9.42
2023-03-05T22:41:42.137Z,9.45
2023-03-05T22:44:10.403Z,9.47
2023-03-05T22:46:38.754Z,9.40
2023-03-05T22:49:07.065Z,9.34
2023-03-05T22:51:35.399Z,9.45
2023-03-05T22:54:03.670Z,9.40
2023-03-05T22:56:31.989Z,9.39
2023-03-05T22:59:01.690Z,9.41
2023-03-05T23:01:30.049Z,9.41
2023-03-05T23:04:35.992Z,9.33
2023-03-05T23:07:10.016Z,9.32
2023-03-05T23:09:38.283Z,9.26
2023-03-05T23:12:07.444Z,9.23
2023-03-05T23:14:37.098Z,9.24
2023-03-05T23:17:05.792Z,9.21
2023-03-05T23:19:39.545Z,9.12
2023-03-05T23:22:09.851Z,9.17
2023-03-05T23:24:38.542Z,9.18
2023-03-05T23:27:10.924Z,9.18
2023-03-05T23:30:19.634Z,9.17
2023-03-05T23:32:50.911Z,9.10
2023-03-05T23:35:21.464Z,9.07
2023-03-05T23:37:50.065Z,9.00
2023-03-05T23:40:21.040Z,8.91
2023-03-05T23:42:49.444Z,8.94
2023-03-05T23:45:20.780Z,8.86
2023-03-05T23:47:49.707Z,8.83
2023-03-05T23:50:20.907Z,8.87
2023-03-05T23:52:50.118Z,8.80
2023-03-05T23:55:21.279Z,8.81
2023-03-05T23:57:49.798Z,8.87
